createdAt,value
2019-05-05T00:02:56.732Z,21.47
2019-05-05T00:08:01.825Z,19.67
2019-05-05T00:13:29.364Z,22.47
2019-05-05T00:18:35.215Z,21.70
2019-05-05T00:23:40.210Z,20.07
2019-05-05T00:28:45.869Z,25.30
2019-05-05T00:33:51.110Z,21.60
2019-05-05T00:38:56.756Z,20.17
2019-05-05T00:44:01.804Z,18.83
2019-05-05T00:49:06.856Z,19.40
2019-05-05T00:54:11.872Z,23.17
2019-05-05T00:59:18.670Z,17.47
2019-05-05T01:04:30.974Z,17.13
2019-05-05T01:09:37.955Z,17.17
2019-05-05T01:14:44.753Z,16.70
2019-05-05T01:20:01.335Z,18.23
2019-05-05T01:24:57.931Z,20.37
2019-05-05T01:30:04.777Z,25.00
2019-05-05T01:35:10.510Z,19.97
2019-05-05T01:40:38.907Z,19.90
2019-05-05T01:45:45.317Z,17.27
2019-05-05T01:50:51.027Z,17.70
2019-05-05T01:55:56.765Z,16.67
2019-05-05T02:01:19.990Z,17.00
2019-05-05T02:06:25.082Z,22.63
2019-05-05T02:11:30.146Z,19.87
2019-05-05T02:16:35.723Z,18.07
2019-05-05T02:21:40.828Z,22.97
2019-05-05T02:26:45.864Z,28.90
2019-05-05T02:32:08.703Z,28.93
2019-05-05T02:37:16.092Z,25.97
2019-05-05T02:42:24.837Z,23.10
2019-05-05T02:47:54.718Z,27.47
2019-05-05T02:53:01.208Z,24.10
2019-05-05T02:58:06.641Z,27.23
2019-05-05T03:03:21.250Z,25.83
2019-05-05T03:08:27.401Z,23.83
2019-05-05T03:13:33.795Z,23.27
2019-05-05T03:18:38.932Z,24.13
2019-05-05T03:23:56.719Z,23.97
2019-05-05T03:29:04.790Z,33.27
2019-05-05T03:34:10.378Z,29.73
2019-05-05T03:39:24.353Z,33.73
2019-05-05T03:44:33.743Z,31.63
2019-05-05T03:49:39.593Z,26.73
2019-05-05T03:54:46.178Z,24.87
2019-05-05T03:59:57.502Z,24.40
2019-05-05T04:05:27.906Z,31.03
2019-05-05T04:10:33.581Z,33.27
2019-05-05T04:15:40.663Z,26.30
2019-05-05T04:20:45.751Z,26.63
2019-05-05T04:25:51.207Z,23.47
2019-05-05T04:30:59.613Z,24.53
2019-05-05T04:36:04.806Z,20.40
2019-05-05T04:41:09.940Z,22.20
2019-05-05T04:46:15.838Z,23.90
2019-05-05T04:51:25.281Z,21.80
2019-05-05T04:56:30.404Z,22.33
2019-05-05T05:01:36.070Z,29.37
2019-05-05T05:06:46.243Z,25.97
2019-05-05T05:11:51.317Z,30.93
2019-05-05T05:16:57.612Z,28.70
2019-05-05T05:22:08.006Z,27.03
2019-05-05T05:27:13.937Z,29.33
2019-05-05T05:32:19.794Z,23.37
2019-05-05T05:37:25.085Z,21.07
2019-05-05T05:42:30.454Z,23.83
2019-05-05T05:47:53.721Z,26.93
2019-05-05T05:53:04.786Z,27.10
2019-05-05T05:58:10.973Z,20.77
2019-05-05T06:03:16.832Z,21.37
2019-05-05T06:08:24.119Z,25.93
2019-05-05T06:13:28.797Z,25.47
2019-05-05T06:18:34.571Z,24.57
2019-05-05T06:23:43.547Z,25.57
2019-05-05T06:28:48.364Z,29.83
2019-05-05T06:33:55.992Z,28.20
2019-05-05T06:39:01.518Z,25.47
2019-05-05T06:44:27.789Z,22.83
2019-05-05T06:49:34.494Z,25.43
2019-05-05T06:54:40.319Z,19.70
2019-05-05T06:59:45.436Z,21.27
2019-05-05T07:04:51.010Z,21.50
2019-05-05T07:09:56.132Z,26.57
2019-05-05T07:15:04.050Z,27.57
2019-05-05T07:20:08.538Z,26.23
2019-05-05T07:25:15.256Z,28.10
2019-05-05T07:30:24.283Z,25.20
2019-05-05T07:35:55.385Z,25.03
2019-05-05T07:40:51.534Z,25.73
2019-05-05T07:45:57.190Z,23.13
2019-05-05T07:51:05.292Z,24.93
2019-05-05T07:56:10.054Z,23.87
2019-05-05T08:01:15.156Z,25.23
2019-05-05T08:06:21.120Z,20.00
2019-05-05T08:11:36.861Z,18.47
2019-05-05T08:17:01.658Z,18.10
2019-05-05T08:22:11.087Z,25.17
2019-05-05T08:27:38.250Z,27.27
2019-05-05T08:33:24.075Z,25.03
2019-05-05T08:38:29.252Z,21.93
2019-05-05T08:43:34.930Z,17.83
2019-05-05T08:48:41.414Z,15.67
2019-05-05T08:53:48.411Z,19.30
2019-05-05T08:58:55.262Z,20.27
2019-05-05T09:04:00.873Z,17.33
2019-05-05T09:09:09.888Z,20.93
2019-05-05T09:14:15.132Z,13.13
2019-05-05T09:19:24.724Z,13.00
2019-05-05T09:24:38.453Z,12.13
2019-05-05T09:29:44.488Z,13.00
2019-05-05T09:34:50.281Z,14.07
2019-05-05T09:40:05.425Z,18.97
2019-05-05T09:45:13.974Z,14.67
2019-05-05T09:50:20.189Z,15.60
2019-05-05T09:55:25.810Z,18.53
2019-05-05T10:00:33.631Z,18.27
2019-05-05T10:05:39.269Z,18.23
2019-05-05T10:10:44.705Z,18.50
2019-05-05T10:15:49.925Z,14.13
2019-05-05T10:20:57.794Z,13.60
2019-05-05T10:26:05.904Z,12.50
2019-05-05T10:31:11.166Z,15.07
2019-05-05T10:36:19.061Z,13.77
2019-05-05T10:41:39.934Z,13.97
2019-05-05T10:47:06.923Z,16.57
2019-05-05T10:52:14.209Z,16.70
2019-05-05T10:57:20.583Z,13.50
2019-05-05T11:02:27.210Z,14.03
2019-05-05T11:07:34.100Z,13.33
2019-05-05T11:12:53.528Z,15.53
2019-05-05T11:17:58.830Z,18.90
2019-05-05T11:23:05.004Z,17.60
2019-05-05T11:28:10.908Z,14.77
2019-05-05T11:33:51.059Z,12.40
2019-05-05T11:38:58.094Z,14.33
2019-05-05T11:44:04.098Z,12.17
2019-05-05T11:49:15.258Z,12.40
2019-05-05T11:54:21.329Z,13.60
2019-05-05T11:59:26.817Z,11.97
2019-05-05T12:04:33.534Z,12.57
2019-05-05T12:09:57.693Z,12.83
2019-05-05T12:15:08.208Z,11.70
2019-05-05T12:20:15.630Z,12.27
2019-05-05T12:25:39.724Z,12.73
2019-05-05T12:30:44.782Z,12.83
2019-05-05T12:35:50.032Z,13.50
2019-05-05T12:41:06.059Z,14.47
2019-05-05T12:46:21.886Z,15.50
2019-05-05T12:51:28.382Z,15.80
2019-05-05T12:56:36.558Z,14.40
2019-05-05T13:01:44.124Z,20.07
2019-05-05T13:06:49.904Z,12.63
2019-05-05T13:12:06.896Z,11.97
2019-05-05T13:17:14.055Z,13.60
2019-05-05T13:22:38.579Z,16.10
2019-05-05T13:27:44.525Z,15.30
2019-05-05T13:32:50.588Z,14.63
2019-05-05T13:37:55.873Z,11.60
2019-05-05T13:43:01.172Z,14.27
2019-05-05T13:48:14.145Z,11.93
2019-05-05T13:53:19.818Z,13.60
2019-05-05T13:58:27.118Z,11.93
2019-05-05T14:03:34.124Z,13.33
2019-05-05T14:08:39.522Z,13.57
2019-05-05T14:13:48.470Z,13.97
2019-05-05T14:18:54.702Z,14.60
2019-05-05T14:24:08.980Z,12.90
2019-05-05T14:29:34.634Z,12.23
2019-05-05T14:34:44.046Z,12.77
2019-05-05T14:39:48.880Z,12.97
2019-05-05T14:44:55.080Z,12.90
2019-05-05T14:50:01.019Z,14.30
2019-05-05T14:55:07.694Z,14.40
2019-05-05T15:00:18.026Z,14.60
2019-05-05T15:05:45.486Z,12.40
2019-05-05T15:11:05.695Z,13.27
2019-05-05T15:16:11.334Z,13.63
2019-05-05T15:21:23.649Z,13.30
2019-05-05T15:26:29.211Z,18.53
2019-05-05T15:31:35.844Z,17.80
2019-05-05T15:36:41.320Z,16.63
2019-05-05T15:41:47.353Z,14.47
2019-05-05T15:46:57.710Z,14.27
2019-05-05T15:52:04.186Z,16.43
2019-05-05T15:57:11.914Z,16.77
2019-05-05T16:02:17.713Z,19.57
2019-05-05T16:07:24.253Z,22.20
2019-05-05T16:12:34.108Z,15.20
2019-05-05T16:17:48.528Z,14.33
2019-05-05T16:23:17.432Z,15.63
2019-05-05T16:28:24.896Z,15.03
2019-05-05T16:33:30.177Z,16.27
2019-05-05T16:38:36.376Z,19.50
2019-05-05T16:43:55.174Z,14.67
2019-05-05T16:49:03.536Z,13.70
2019-05-05T16:54:16.586Z,13.90
2019-05-05T16:59:23.721Z,13.37
2019-05-05T17:04:28.998Z,17.17
2019-05-05T17:09:34.749Z,18.43
2019-05-05T17:15:10.024Z,16.10
2019-05-05T17:40:15.141Z,14.80
2019-05-05T17:45:26.727Z,15.03
2019-05-05T17:50:57.094Z,15.70
2019-05-05T17:56:03.929Z,15.83
2019-05-05T18:01:09.806Z,14.10
2019-05-05T18:06:38.794Z,14.20
2019-05-05T18:12:01.877Z,13.87
2019-05-05T18:17:07.228Z,15.53
2019-05-05T18:22:13.939Z,16.30
2019-05-05T18:27:19.332Z,17.53
2019-05-05T18:32:24.514Z,18.90
2019-05-05T18:37:29.980Z,16.03
2019-05-05T18:42:38.720Z,14.57
2019-05-05T18:47:55.832Z,14.30
2019-05-05T18:53:22.950Z,14.43
2019-05-05T18:58:30.467Z,14.23
2019-05-05T19:03:54.557Z,14.20
2019-05-05T19:09:02.573Z,16.93
2019-05-05T19:14:30.219Z,20.27
2019-05-05T19:19:37.606Z,15.90
2019-05-05T19:24:44.087Z,17.87
2019-05-05T19:29:53.503Z,19.30
2019-05-05T19:34:58.231Z,15.67
2019-05-05T19:40:14.173Z,15.83
2019-05-05T19:45:19.392Z,14.90
2019-05-05T19:55:58.258Z,17.90
2019-05-05T20:01:05.035Z,16.50
2019-05-05T20:06:14.184Z,16.53
2019-05-05T20:11:20.660Z,17.47
2019-05-05T20:16:37.578Z,21.30
2019-05-05T20:21:43.929Z,17.27
2019-05-05T20:26:49.785Z,19.47
2019-05-05T20:31:56.693Z,19.77
2019-05-05T20:37:14.328Z,18.60
2019-05-05T20:42:19.957Z,15.50
2019-05-05T20:47:25.066Z,15.80
2019-05-05T20:52:34.565Z,16.57
2019-05-05T20:57:40.194Z,17.10
2019-05-05T21:02:45.209Z,16.33
2019-05-05T21:07:50.287Z,16.73
2019-05-05T21:12:55.443Z,20.93
2019-05-05T21:18:00.569Z,23.67
2019-05-05T21:23:16.366Z,24.93
2019-05-05T21:28:24.197Z,32.83
2019-05-05T21:33:29.344Z,36.00
2019-05-05T21:38:35.618Z,24.73
2019-05-05T21:43:41.457Z,18.53
2019-05-05T21:48:47.196Z,19.40
2019-05-05T21:54:10.650Z,21.73
2019-05-05T21:59:15.754Z,22.27
2019-05-05T22:04:23.939Z,19.53
2019-05-05T22:09:29.131Z,18.87
2019-05-05T22:14:34.238Z,17.53
2019-05-05T22:19:44.532Z,17.60
2019-05-05T22:24:50.728Z,18.13
2019-05-05T22:30:09.163Z,20.63
2019-05-05T22:35:02.623Z,23.53
2019-05-05T22:40:07.927Z,27.70
2019-05-05T22:45:14.237Z,19.00
2019-05-05T22:50:19.377Z,18.97
2019-05-05T22:55:24.859Z,23.67
2019-05-05T23:00:31.451Z,17.03
2019-05-05T23:05:45.542Z,19.43
2019-05-05T23:10:50.549Z,18.87
2019-05-05T23:16:05.643Z,22.00
2019-05-05T23:21:44.195Z,16.97
2019-05-05T23:26:51.694Z,17.77
2019-05-05T23:32:09.929Z,16.60
2019-05-05T23:37:14.954Z,17.70
2019-05-05T23:42:20.041Z,21.13
2019-05-05T23:47:25.639Z,19.80
2019-05-05T23:52:30.845Z,18.43
2019-05-05T23:57:35.848Z,19.77
